CPX612 Details

Departure: Washington Dulles International Airport (KIAD)
Arrival: Long Island Mac Arthur Airport (KISP)
Route: WOOLY1 AGARD V44 SIE J121 SARDI CCC


Current Weather Information
KIAD 171552Z 00000KT 10SM BKN040TCU BKN100 BKN250 29/23 A3002 RMK AO2 SLP161 TCU OHD AND E T02940228
KISP 171556Z 03006KT 10SM FEW007 BKN010 BKN014 26/24 A3002 RMK AO2 SLP165 T02610239